Time;durP1;ratioP1;P1;durP2;ratioP2;P2;SDS_P1;SDS_P2;PMS_P1;PMS_P2;Temp;Humidity;BMP_temperature;BMP_pressure;BME280_temperature;BME280_humidity;BME280_pressure;Samples;Min_cycle;Max_cycle;Signal;HPM_P1;HPM_P2
2022/04/08 00:00:24;;;;;;;4.77;1.30;;;8.80;60.40;;;8.50;52.13;96105.66;4949349;28;20059;-42
2022/04/08 00:02:52;;;;;;;4.10;1.30;;;8.80;61.20;;;8.64;52.21;96096.81;4947439;29;20059;-41
2022/04/08 00:05:20;;;;;;;3.87;1.00;;;8.90;61.80;;;8.66;52.34;96102.75;4948724;28;20073;-42
2022/04/08 00:07:48;;;;;;;4.50;2.40;;;8.90;61.70;;;8.71;52.15;96095.06;4950162;29;20244;-42
2022/04/08 00:10:16;;;;;;;3.03;1.40;;;8.90;62.10;;;8.75;52.41;96116.75;4948906;29;20069;-41
2022/04/08 00:12:44;;;;;;;7.57;1.47;;;8.90;62.70;;;8.87;52.42;96108.09;4948680;29;20051;-42
2022/04/08 00:15:12;;;;;;;7.73;1.93;;;9.00;63.10;;;8.83;52.38;96113.97;4948977;29;20061;-41
2022/04/08 00:17:40;;;;;;;8.33;1.77;;;9.00;62.50;;;9.03;52.16;96116.84;4949391;29;20090;-42
2022/04/08 00:20:09;;;;;;;5.57;1.37;;;9.10;62.50;;;8.89;52.29;96118.53;4948546;28;20241;-41
2022/04/08 00:22:42;;;;;;;5.70;1.83;;;9.10;61.80;;;8.67;51.90;96133.59;4948037;29;20050;-41
2022/04/08 00:25:10;;;;;;;4.93;1.50;;;8.90;60.80;;;8.73;52.69;96114.28;4948511;29;20055;-41
2022/04/08 00:27:39;;;;;;;4.07;1.53;;;8.90;62.10;;;8.57;52.27;96125.09;4949082;29;20080;-43
2022/04/08 00:30:07;;;;;;;8.60;2.00;;;8.80;61.40;;;8.70;52.26;96103.22;4948330;29;20051;-42
2022/04/08 00:32:35;;;;;;;8.67;1.63;;;8.90;61.80;;;8.66;51.87;96114.19;4947999;29;20349;-42
2022/04/08 00:35:03;;;;;;;5.77;1.30;;;8.90;60.90;;;8.69;52.63;96114.84;4949204;28;20050;-42
2022/04/08 00:37:31;;;;;;;3.43;1.40;;;8.90;62.00;;;8.61;52.60;96121.91;4947271;28;20061;-42
2022/04/08 00:39:59;;;;;;;7.00;1.50;;;8.80;62.20;;;8.43;52.00;96124.97;4946896;29;20055;-42
2022/04/08 00:42:26;;;;;;;4.17;1.40;;;8.80;61.10;;;8.37;52.65;96125.63;4947321;28;20057;-42
2022/04/08 00:44:54;;;;;;;6.47;1.77;;;8.70;62.00;;;8.51;51.95;96123.19;4948023;28;20063;-42
2022/04/08 00:47:22;;;;;;;4.30;1.23;;;8.80;60.60;;;8.61;52.27;96135.16;4949017;29;20361;-41
2022/04/08 00:49:53;;;;;;;7.13;2.20;;;8.80;61.40;;;8.65;52.47;96151.53;4947218;29;20055;-41
2022/04/08 00:52:22;;;;;;;6.17;1.53;;;8.80;61.80;;;8.63;51.37;96148.25;4945494;29;20337;-41
2022/04/08 00:54:50;;;;;;;3.03;1.27;;;8.80;59.70;;;8.76;51.56;96143.09;4946832;29;20057;-41
2022/04/08 00:57:18;;;;;;;4.43;2.07;;;9.00;60.40;;;8.69;50.46;96158.13;4948365;29;20055;-41
2022/04/08 00:59:48;;;;;;;9.63;1.70;;;8.90;58.60;;;8.62;51.01;96143.94;4948134;29;20354;-41
2022/04/08 01:02:15;;;;;;;3.80;1.50;;;8.90;59.50;;;8.60;50.51;96156.56;4946195;29;20061;-41
2022/04/08 01:04:43;;;;;;;2.63;1.17;;;8.80;59.10;;;8.46;51.12;96151.09;4947797;28;20055;-41
2022/04/08 01:07:11;;;;;;;4.73;1.57;;;8.80;59.30;;;8.50;51.77;96146.25;4948640;29;20403;-41
2022/04/08 01:09:39;;;;;;;5.47;2.20;;;8.80;60.80;;;8.48;52.01;96151.72;4947711;29;20061;-41
2022/04/08 01:12:07;;;;;;;4.57;1.57;;;8.80;61.20;;;8.40;52.82;96154.44;4948061;29;20344;-41
2022/04/08 01:14:39;;;;;;;5.37;1.57;;;8.70;62.70;;;8.40;52.86;96154.44;4948323;29;20384;-41
2022/04/08 01:17:07;;;;;;;6.23;1.80;;;8.70;62.60;;;8.55;53.31;96165.09;4948972;28;20059;-41
2022/04/08 01:19:35;;;;;;;4.93;1.80;;;8.80;63.20;;;8.48;52.84;96156.22;4948649;29;20047;-41
2022/04/08 01:22:04;;;;;;;4.00;1.67;;;8.70;62.60;;;8.38;52.95;96182.16;4946558;29;20349;-42
2022/04/08 01:24:36;;;;;;;2.10;0.93;;;8.60;62.50;;;8.41;52.72;96173.81;4946966;28;20067;-41
2022/04/08 01:27:04;;;;;;;3.33;1.50;;;8.70;61.90;;;8.36;52.29;96168.28;4948749;29;20065;-42
2022/04/08 01:29:32;;;;;;;3.33;1.40;;;8.60;61.50;;;8.27;52.60;96180.78;4946777;29;20061;-42
2022/04/08 01:32:00;;;;;;;5.03;1.60;;;8.60;62.00;;;8.35;52.61;96171.91;4947149;29;20067;-41
2022/04/08 01:34:27;;;;;;;4.80;1.50;;;8.60;61.90;;;8.39;52.61;96174.00;4946998;29;20051;-41
2022/04/08 01:36:55;;;;;;;4.00;1.40;;;8.60;61.70;;;8.26;52.90;96184.47;4946911;28;20067;-41
2022/04/08 01:39:23;;;;;;;6.03;1.50;;;8.50;62.10;;;8.18;52.62;96176.56;4948267;29;20345;-41
2022/04/08 01:41:51;;;;;;;5.10;1.40;;;8.50;62.20;;;8.15;53.46;96184.91;4948377;28;20065;-41
2022/04/08 01:44:19;;;;;;;5.37;1.30;;;8.40;62.80;;;7.88;53.76;96187.13;4948042;29;20082;-41
2022/04/08 01:46:47;;;;;;;2.97;1.70;;;8.30;63.70;;;7.98;54.03;96187.69;4947442;29;20051;-41
2022/04/08 01:49:15;;;;;;;5.40;1.40;;;8.30;64.30;;;8.00;54.34;96184.88;4948355;29;20617;-41
2022/04/08 01:51:43;;;;;;;3.23;1.37;;;8.30;64.10;;;7.92;54.70;96192.91;4948261;29;20055;-41
2022/04/08 01:54:11;;;;;;;6.43;1.20;;;8.30;64.80;;;8.04;54.21;96202.06;4950157;28;20081;-41
2022/04/08 01:56:39;;;;;;;3.40;1.20;;;8.30;64.80;;;8.02;54.57;96202.22;4951741;29;20050;-41
2022/04/08 01:59:07;;;;;;;6.17;2.10;;;8.30;64.70;;;8.17;54.00;96198.78;4951718;29;20057;-41
2022/04/08 02:01:34;;;;;;;5.10;1.90;;;8.40;64.70;;;8.34;53.84;96215.38;4951013;29;20055;-41
2022/04/08 02:04:04;;;;;;;5.70;1.50;;;8.40;64.50;;;8.23;53.35;96219.28;4951315;29;20349;-41
2022/04/08 02:06:32;;;;;;;4.30;1.53;;;8.40;63.10;;;8.20;53.16;96204.56;4952030;28;20273;-41
2022/04/08 02:09:00;;;;;;;3.73;1.90;;;8.40;63.00;;;8.15;53.60;96222.81;4951864;29;20356;-41
2022/04/08 02:11:28;;;;;;;3.70;1.63;;;8.40;63.20;;;8.27;53.83;96216.06;4950968;29;20081;-41
2022/04/08 02:13:56;;;;;;;4.17;1.50;;;8.50;63.70;;;8.38;53.57;96214.81;4950192;28;20361;-41
2022/04/08 02:16:24;;;;;;;8.50;2.17;;;8.60;63.80;;;8.19;53.43;96207.38;4951795;29;20361;-41
2022/04/08 02:18:52;;;;;;;4.10;1.30;;;8.50;63.30;;;8.20;53.60;96201.91;4951249;28;20059;-41
2022/04/08 02:21:20;;;;;;;7.53;2.03;;;8.50;62.90;;;8.36;53.62;96218.66;4950439;29;20050;-41
2022/04/08 02:23:51;;;;;;;5.50;1.53;;;8.50;63.70;;;8.21;53.71;96216.78;4951034;29;20431;-41
2022/04/08 02:26:20;;;;;;;6.20;1.40;;;8.50;63.40;;;8.09;53.53;96197.84;4951535;29;20402;-41
2022/04/08 02:28:47;;;;;;;3.47;1.30;;;8.30;63.70;;;8.01;54.01;96203.25;4949232;29;20313;-41
2022/04/08 02:31:15;;;;;;;3.13;1.57;;;8.20;64.50;;;7.96;54.23;96226.81;4950864;29;20385;-41
2022/04/08 02:33:43;;;;;;;5.70;1.63;;;8.20;64.80;;;7.89;54.64;96210.00;4950650;29;20457;-41
2022/04/08 02:36:12;;;;;;;7.27;1.50;;;8.10;65.20;;;7.79;54.52;96242.03;4950182;29;20046;-41
2022/04/08 02:38:39;;;;;;;4.63;1.10;;;8.10;65.00;;;7.62;54.81;96235.22;4952046;29;20240;-41
2022/04/08 02:41:07;;;;;;;3.73;1.20;;;7.90;64.60;;;7.77;54.08;96211.41;4949859;28;20051;-41
2022/04/08 02:43:35;;;;;;;4.07;1.87;;;8.00;64.60;;;7.59;54.76;96211.72;4951007;29;20047;-41
2022/04/08 02:46:03;;;;;;;5.33;1.70;;;7.90;64.70;;;7.72;53.96;96224.38;4951537;29;20057;-41
2022/04/08 02:48:31;;;;;;;3.03;1.40;;;7.90;64.40;;;7.58;53.95;96248.00;4950656;29;20061;-41
2022/04/08 02:50:58;;;;;;;5.20;1.30;;;7.80;63.50;;;7.55;53.60;96235.09;4950922;29;20059;-42
2022/04/08 02:53:26;;;;;;;3.80;1.90;;;7.90;63.00;;;7.44;53.59;96243.44;4951823;29;20050;-41
2022/04/08 02:55:54;;;;;;;5.00;1.63;;;7.80;62.70;;;7.59;53.66;96256.75;4951066;29;20058;-41
2022/04/08 02:58:22;;;;;;;2.97;1.40;;;7.80;63.60;;;7.41;54.03;96249.09;4949527;29;20047;-41
2022/04/08 03:00:49;;;;;;;4.77;1.83;;;7.70;64.10;;;7.68;54.20;96239.81;4950814;29;20153;-41
2022/04/08 03:03:17;;;;;;;3.90;1.30;;;7.80;64.50;;;7.56;54.92;96249.16;4950313;28;20058;-41
2022/04/08 03:05:45;;;;;;;8.70;2.17;;;7.70;65.10;;;7.63;54.65;96250.91;4950560;28;20047;-41
2022/04/08 03:08:13;;;;;;;6.50;2.23;;;7.80;65.20;;;7.58;54.58;96255.09;4949825;29;20055;-41
2022/04/08 03:10:41;;;;;;;3.80;1.77;;;7.70;65.20;;;7.61;54.41;96244.16;4949002;29;20055;-41
2022/04/08 03:13:08;;;;;;;5.50;2.10;;;7.80;65.00;;;7.76;54.61;96262.75;4947980;29;20055;-41
2022/04/08 03:15:37;;;;;;;8.67;2.17;;;7.80;64.70;;;7.85;54.01;96259.03;4951065;29;20062;-41
2022/04/08 03:18:06;;;;;;;4.83;1.70;;;7.90;64.80;;;7.76;54.26;96268.88;4949503;29;20054;-41
2022/04/08 03:20:34;;;;;;;1.93;1.20;;;7.80;64.20;;;7.85;53.71;96275.78;4950213;29;20349;-41
2022/04/08 03:23:01;;;;;;;7.53;1.77;;;7.90;64.00;;;7.98;53.25;96269.84;4949986;29;20304;-41
2022/04/08 03:25:29;;;;;;;7.77;2.40;;;8.00;63.30;;;8.08;52.88;96274.91;4948465;29;20061;-41
2022/04/08 03:27:57;;;;;;;6.53;2.30;;;8.20;62.50;;;8.01;52.61;96311.91;4950935;29;20055;-41
2022/04/08 03:30:27;;;;;;;3.10;2.30;;;8.10;61.50;;;8.04;52.64;96274.44;4948997;28;20055;-41
2022/04/08 03:32:58;;;;;;;6.47;1.77;;;8.10;61.60;;;8.13;51.92;96272.56;4948718;29;20360;-41
2022/04/08 03:35:26;;;;;;;5.37;1.73;;;8.20;60.70;;;8.22;52.09;96273.28;4948774;29;20051;-41
2022/04/08 03:37:54;;;;;;;8.73;2.20;;;8.30;61.40;;;8.18;52.25;96290.56;4950039;29;20058;-41
2022/04/08 03:40:23;;;;;;;3.27;1.73;;;8.30;61.10;;;8.23;51.64;96275.75;4950260;28;20249;-41
2022/04/08 03:42:50;;;;;;;5.70;1.80;;;8.30;60.60;;;8.25;51.92;96283.53;4949681;29;20066;-41
2022/04/08 03:45:18;;;;;;;3.30;1.40;;;8.30;60.90;;;8.09;51.55;96301.25;4949332;29;20359;-41
2022/04/08 03:47:48;;;;;;;7.23;3.20;;;8.20;60.50;;;8.15;51.82;96290.94;4949623;29;20051;-41
2022/04/08 03:50:16;;;;;;;9.83;2.57;;;8.20;61.10;;;8.04;51.68;96298.28;4949299;29;20055;-41
2022/04/08 03:52:44;;;;;;;3.67;1.40;;;8.10;60.20;;;7.88;51.31;96286.00;4949002;29;20070;-41
2022/04/08 03:55:11;;;;;;;3.97;1.77;;;8.00;60.10;;;8.00;51.84;96289.06;4947156;28;20063;-41
2022/04/08 03:57:39;;;;;;;4.43;1.23;;;8.00;61.10;;;7.96;51.56;96287.75;4949532;29;20047;-41
2022/04/08 04:00:08;;;;;;;6.70;2.00;;;8.00;60.80;;;7.83;51.55;96285.72;4948911;28;20468;-41
2022/04/08 04:02:36;;;;;;;7.00;1.57;;;7.90;60.60;;;7.93;51.50;96296.09;4947884;28;20059;-41
2022/04/08 04:05:05;;;;;;;9.73;1.57;;;7.90;60.00;;;7.78;51.26;96300.50;4949374;29;20062;-41
2022/04/08 04:07:34;;;;;;;4.27;1.70;;;7.90;59.40;;;7.93;50.48;96309.34;4950076;29;20653;-41
2022/04/08 04:10:03;;;;;;;4.40;1.97;;;8.00;58.90;;;7.96;50.94;96303.66;4947640;29;20066;-41
2022/04/08 04:12:30;;;;;;;5.63;1.57;;;8.00;58.90;;;7.96;50.89;96286.94;4948763;29;20058;-41
2022/04/08 04:14:58;;;;;;;3.50;1.90;;;8.00;59.20;;;7.62;51.11;96307.56;4949019;28;20249;-41
2022/04/08 04:17:28;;;;;;;5.63;1.90;;;7.80;59.00;;;7.56;51.71;96283.56;4947976;28;20055;-41
2022/04/08 04:19:56;;;;;;;4.00;1.60;;;7.70;60.30;;;7.47;52.00;96293.41;4947373;29;20276;-41
2022/04/08 04:22:23;;;;;;;4.67;1.63;;;7.70;60.50;;;7.65;51.94;96288.63;4949060;29;20522;-41
2022/04/08 04:24:51;;;;;;;4.53;2.33;;;7.70;60.90;;;7.69;52.22;96284.63;4947065;29;20055;-41
2022/04/08 04:27:19;;;;;;;3.10;1.10;;;7.80;60.90;;;7.46;52.83;96286.44;4947365;29;20055;-41
2022/04/08 04:29:47;;;;;;;4.80;1.67;;;7.70;61.30;;;7.56;52.75;96291.53;4947969;28;20055;-41
2022/04/08 04:32:17;;;;;;;8.40;4.03;;;7.70;61.70;;;7.56;53.13;96292.38;4946770;29;20256;-41
2022/04/08 04:34:45;;;;;;;3.50;1.87;;;7.70;62.50;;;7.54;53.65;96281.13;4948328;29;20065;-41
2022/04/08 04:37:13;;;;;;;5.77;1.87;;;7.70;63.20;;;7.52;53.33;96279.63;4948440;29;20043;-41
2022/04/08 04:39:41;;;;;;;8.10;1.97;;;7.60;63.40;;;7.64;53.74;96272.94;4947766;28;20061;-41
2022/04/08 04:42:09;;;;;;;4.97;1.87;;;7.70;63.50;;;7.76;53.59;96278.66;4946869;29;20356;-41
2022/04/08 04:44:36;;;;;;;6.13;1.80;;;7.70;63.60;;;7.54;53.77;96270.53;4948610;29;20043;-41
2022/04/08 04:47:05;;;;;;;4.57;1.40;;;7.60;64.30;;;7.39;54.43;96267.00;4949943;29;20348;-41
2022/04/08 04:49:32;;;;;;;6.87;1.57;;;7.50;64.80;;;7.61;54.33;96270.63;4949127;29;20065;-41
2022/04/08 04:52:00;;;;;;;5.93;1.87;;;7.60;64.80;;;7.58;54.27;96279.78;4947673;29;20051;-41
2022/04/08 04:54:28;;;;;;;9.00;1.90;;;7.60;65.00;;;7.72;54.13;96280.00;4946894;28;20059;-41
2022/04/08 04:56:56;;;;;;;8.33;2.83;;;7.70;65.10;;;7.55;54.20;96276.66;4947794;28;20059;-41
2022/04/08 04:59:24;;;;;;;3.90;2.47;;;7.60;65.20;;;7.62;54.35;96272.31;4948301;28;20117;-41
2022/04/08 05:01:51;;;;;;;6.63;2.00;;;7.60;65.50;;;7.44;54.89;96273.41;4948968;29;20059;-41
2022/04/08 05:04:20;;;;;;;5.73;1.40;;;7.50;65.70;;;7.34;55.34;96269.31;4948118;29;20380;-41
2022/04/08 05:06:48;;;;;;;5.57;1.60;;;7.40;65.90;;;7.53;54.74;96276.00;4949583;29;20345;-41
2022/04/08 05:09:16;;;;;;;4.47;1.40;;;7.60;65.50;;;7.48;54.94;96265.91;4949106;29;20065;-41
2022/04/08 05:11:44;;;;;;;3.77;1.57;;;7.60;65.50;;;7.60;54.84;96269.81;4948393;29;20085;-41
2022/04/08 05:14:12;;;;;;;4.70;1.40;;;7.60;65.50;;;7.56;54.19;96275.63;4947821;29;20071;-41
2022/04/08 05:16:39;;;;;;;3.13;1.37;;;7.70;65.00;;;7.41;55.41;96268.44;4947910;29;20399;-42
2022/04/08 05:19:07;;;;;;;3.53;1.60;;;7.60;65.40;;;7.50;55.15;96269.22;4946631;29;20465;-42
2022/04/08 05:21:35;;;;;;;5.87;1.77;;;7.60;65.60;;;7.69;54.43;96278.53;4948208;29;20047;-42
2022/04/08 05:24:03;;;;;;;2.93;1.60;;;7.70;65.10;;;7.77;54.40;96288.25;4947361;29;20057;-44
2022/04/08 05:26:31;;;;;;;4.87;2.20;;;7.80;64.80;;;7.80;54.57;96283.41;4948545;29;20051;-44
2022/04/08 05:28:59;;;;;;;2.77;1.33;;;7.80;65.10;;;7.68;54.30;96288.31;4951312;28;20055;-41
2022/04/08 05:31:27;;;;;;;3.23;1.43;;;7.80;64.60;;;7.89;54.03;96297.44;4952253;28;20323;-42
2022/04/08 05:33:55;;;;;;;7.30;2.50;;;7.90;65.20;;;7.99;54.13;96294.56;4950935;28;20063;-43
2022/04/08 05:36:22;;;;;;;8.80;2.40;;;8.00;64.80;;;8.09;53.92;96301.25;4951459;28;20245;-41
2022/04/08 05:38:50;;;;;;;4.93;2.07;;;8.10;64.30;;;8.21;53.70;96301.63;4951136;29;20315;-42
2022/04/08 05:41:18;;;;;;;6.23;1.90;;;8.20;63.50;;;8.27;53.51;96311.53;4951518;29;20133;-43
2022/04/08 05:43:46;;;;;;;6.57;2.13;;;8.20;63.70;;;8.26;53.29;96315.19;4952246;29;20283;-44
2022/04/08 05:46:15;;;;;;;5.10;2.30;;;8.30;63.70;;;8.41;53.39;96317.91;4952278;29;20055;-42
2022/04/08 05:48:43;;;;;;;4.57;1.87;;;8.40;63.40;;;8.52;53.21;96319.28;4952043;29;20363;-43
2022/04/08 05:51:11;;;;;;;2.57;1.60;;;8.50;63.20;;;8.63;52.89;96320.69;4951201;28;20051;-41
2022/04/08 05:53:39;;;;;;;3.00;1.47;;;8.60;62.40;;;8.71;53.02;96319.78;4951851;29;20043;-42
2022/04/08 05:56:06;;;;;;;11.37;4.07;;;8.60;63.00;;;8.73;53.13;96323.91;4951594;29;20051;-42
2022/04/08 05:58:35;;;;;;;4.53;1.40;;;8.70;63.30;;;8.79;53.05;96317.03;4949923;29;20058;-41
2022/04/08 06:01:03;;;;;;;4.70;1.40;;;8.70;63.70;;;8.78;53.47;96318.03;4931741;29;20063;-41
2022/04/08 06:03:31;;;;;;;4.77;2.20;;;8.70;64.50;;;8.84;53.28;96315.50;4931615;29;20047;-41
2022/04/08 06:05:59;;;;;;;3.90;1.60;;;8.70;64.10;;;8.85;53.70;96313.66;4932924;29;20218;-41
2022/04/08 06:08:26;;;;;;;5.53;1.57;;;8.70;64.80;;;8.91;53.87;96315.56;4929793;29;20055;-41
2022/04/08 06:10:54;;;;;;;2.70;1.20;;;8.80;64.60;;;8.98;53.41;96313.84;4931904;29;20073;-40
2022/04/08 06:13:25;;;;;;;1.77;1.07;;;8.90;64.60;;;8.94;53.31;96312.56;4932180;29;20057;-43
2022/04/08 06:16:08;;;;;;;2.73;1.27;;;8.70;64.30;;;8.96;53.33;96307.88;4931239;29;20057;-41
2022/04/08 06:18:36;;;;;;;3.63;1.50;;;8.80;63.90;;;9.00;52.99;96292.41;4930956;29;20052;-41
2022/04/08 06:21:04;;;;;;;3.57;1.63;;;8.90;63.30;;;8.62;52.50;96295.16;4931819;29;20066;-40
2022/04/08 06:23:32;;;;;;;3.47;1.40;;;8.60;62.00;;;8.65;52.22;96297.47;4930837;29;20058;-41
2022/04/08 06:26:00;;;;;;;3.43;1.50;;;8.50;61.60;;;8.60;51.80;96297.16;4933251;29;20262;-40
2022/04/08 06:28:28;;;;;;;6.27;1.97;;;8.50;61.20;;;8.63;52.02;96307.44;4931915;29;20047;-40
2022/04/08 06:30:55;;;;;;;5.43;1.87;;;8.50;61.70;;;8.68;52.09;96297.06;4931464;29;20249;-41
2022/04/08 06:33:23;;;;;;;2.10;1.40;;;8.60;61.70;;;8.67;52.39;96301.56;4933089;29;20317;-41
2022/04/08 06:35:51;;;;;;;1.87;1.17;;;8.60;62.10;;;8.72;52.34;96292.22;4931784;29;20384;-41
2022/04/08 06:38:19;;;;;;;3.60;1.10;;;8.60;62.20;;;8.76;52.48;96291.69;4931043;29;20050;-41
2022/04/08 06:40:47;;;;;;;6.00;1.40;;;8.70;62.30;;;8.73;53.06;96292.06;4930457;29;20060;-41
2022/04/08 06:43:15;;;;;;;4.27;1.30;;;8.70;63.10;;;8.69;53.13;96289.97;4931038;29;20048;-41
2022/04/08 06:45:43;;;;;;;4.97;1.73;;;8.60;63.50;;;8.74;53.60;96285.72;4932755;29;20062;-41
2022/04/08 06:48:12;;;;;;;4.00;1.40;;;8.70;64.10;;;8.67;53.38;96284.81;4931467;29;20715;-41
2022/04/08 06:50:40;;;;;;;3.53;1.57;;;8.50;64.00;;;8.52;54.19;96292.75;4931075;29;20063;-40
2022/04/08 06:53:08;;;;;;;3.10;1.30;;;8.40;65.70;;;8.46;54.13;96289.00;4930532;29;20060;-41
2022/04/08 06:55:36;;;;;;;2.80;1.73;;;8.20;66.30;;;8.55;54.16;96289.75;4930064;29;20070;-41
2022/04/08 06:58:05;;;;;;;4.37;2.17;;;8.40;65.90;;;8.62;54.24;96284.53;4930483;29;20059;-41
2022/04/08 07:00:32;;;;;;;6.80;1.53;;;8.50;65.80;;;8.72;54.34;96279.78;4931943;29;20052;-42
2022/04/08 07:03:00;;;;;;;3.50;1.53;;;8.60;66.00;;;8.78;54.57;96272.91;4931118;29;20054;-41
2022/04/08 07:05:29;;;;;;;5.97;1.63;;;8.70;66.70;;;8.82;54.46;96269.72;4930125;29;20261;-41
2022/04/08 07:07:58;;;;;;;5.73;1.50;;;8.70;66.10;;;8.76;55.13;96262.50;4930216;29;20154;-41
2022/04/08 07:10:26;;;;;;;5.20;1.50;;;8.60;67.70;;;8.83;55.19;96259.94;4930231;29;20059;-43
2022/04/08 07:12:54;;;;;;;3.43;1.23;;;8.70;68.10;;;8.85;55.06;96255.25;4930025;29;20123;-41
2022/04/08 07:15:22;;;;;;;6.90;1.50;;;8.70;67.70;;;8.87;55.20;96258.56;4930322;29;20059;-41
2022/04/08 07:17:50;;;;;;;2.37;1.33;;;8.70;68.50;;;8.89;56.01;96259.19;4931280;29;20056;-41
2022/04/08 07:20:18;;;;;;;5.53;1.30;;;8.60;69.90;;;8.92;56.29;96255.34;4930583;29;20380;-41
2022/04/08 07:22:46;;;;;;;1.70;1.20;;;8.70;71.70;;;8.92;56.04;96252.69;4930348;29;20060;-41
2022/04/08 07:25:16;;;;;;;2.87;1.93;;;8.60;70.60;;;8.86;56.00;96241.00;4930515;29;20157;-42
2022/04/08 07:27:52;;;;;;;6.27;3.10;;;8.60;70.30;;;8.84;56.21;96245.63;4931651;29;20354;-41
2022/04/08 07:30:21;;;;;;;2.77;1.60;;;8.60;69.70;;;8.82;56.39;96234.38;4930711;29;20065;-42
2022/04/08 07:32:52;;;;;;;1.23;1.10;;;8.50;71.50;;;8.80;56.50;96239.91;4930809;29;20095;-41
2022/04/08 07:35:23;;;;;;;3.20;1.40;;;8.50;70.90;;;8.76;56.49;96238.63;4930310;29;20055;-41
2022/04/08 07:37:51;;;;;;;4.57;1.83;;;8.40;71.10;;;8.76;56.77;96237.78;4928569;29;20055;-44
2022/04/08 07:40:19;;;;;;;3.30;1.20;;;8.40;72.20;;;8.78;57.05;96233.97;4929077;29;20051;-42
2022/04/08 07:42:47;;;;;;;5.60;1.17;;;8.50;72.10;;;8.80;56.86;96225.78;4930743;29;20050;-43
2022/04/08 07:45:17;;;;;;;4.50;1.37;;;8.50;72.20;;;8.75;57.37;96223.69;4929011;29;20337;-43
2022/04/08 07:47:45;;;;;;;1.80;1.03;;;8.40;73.60;;;8.73;57.71;96225.72;4930651;29;20078;-42
2022/04/08 07:50:14;;;;;;;2.63;0.90;;;8.40;74.30;;;8.70;57.76;96215.47;4930130;29;20055;-43
2022/04/08 07:52:43;;;;;;;2.43;0.90;;;8.30;75.90;;;8.70;57.96;96214.66;4929823;29;20566;-45
2022/04/08 07:55:12;;;;;;;1.63;0.53;;;8.30;78.20;;;8.65;58.25;96210.72;4949774;29;20051;-44
2022/04/08 07:57:48;;;;;;;5.10;0.90;;;8.20;78.90;;;8.63;58.85;96215.38;4949856;29;20050;-46
2022/04/08 08:00:22;;;;;;;1.33;0.73;;;8.20;81.30;;;8.54;59.93;96218.31;4938026;29;20246;-45
2022/04/08 08:02:50;;;;;;;;;;;8.10;81.30;;;8.50;59.45;96198.47;4937220;29;20071;-43
2022/04/08 08:05:20;;;;;;;0.70;0.70;;;8.10;81.00;;;8.57;58.84;96202.03;4937779;29;20109;-45
2022/04/08 08:07:57;;;;;;;1.03;0.70;;;8.20;80.00;;;8.58;59.51;96193.06;4937398;29;20054;-45
2022/04/08 08:10:35;;;;;;;1.07;0.80;;;8.20;79.60;;;8.59;59.29;96184.94;4936861;29;20362;-45
2022/04/08 08:13:03;;;;;;;2.40;1.10;;;8.20;80.70;;;8.61;59.43;96188.22;4938473;29;20051;-46
2022/04/08 08:15:33;;;;;;;1.70;0.93;;;8.20;81.70;;;8.60;59.57;96181.25;4938305;28;20414;-45
2022/04/08 08:18:01;;;;;;;4.40;1.00;;;8.20;82.00;;;8.61;59.82;96184.75;4939414;29;20057;-43
2022/04/08 08:20:29;;;;;;;2.83;0.97;;;8.20;81.90;;;8.61;59.93;96182.91;4945640;29;20108;-43
2022/04/08 08:22:57;;;;;;;3.67;1.30;;;8.20;82.80;;;8.65;60.33;96167.47;4946917;28;20055;-43
2022/04/08 08:25:25;;;;;;;3.40;1.07;;;8.30;82.40;;;8.69;60.08;96167.91;4948582;29;20050;-43
2022/04/08 08:28:01;;;;;;;3.03;1.00;;;8.40;83.70;;;8.72;60.92;96162.22;4947736;29;20077;-43
2022/04/08 08:30:31;;;;;;;1.57;0.83;;;8.40;87.60;;;8.76;60.49;96163.50;4948598;29;20051;-44
2022/04/08 08:32:59;;;;;;;3.37;1.57;;;8.50;87.70;;;8.81;60.69;96166.41;4948168;29;20051;-44
2022/04/08 08:35:27;;;;;;;4.17;1.20;;;8.50;87.70;;;8.78;60.93;96172.09;4949086;28;20058;-44
2022/04/08 08:38:00;;;;;;;3.47;1.13;;;8.50;87.30;;;8.79;60.96;96166.59;4947283;29;20047;-43
2022/04/08 08:40:33;;;;;;;4.20;1.07;;;8.50;87.60;;;8.81;60.81;96167.22;4947966;28;20073;-44
2022/04/08 08:43:07;;;;;;;3.40;1.10;;;8.50;89.80;;;8.78;61.48;96159.66;4947816;29;20268;-42
2022/04/08 08:45:37;;;;;;;1.43;0.80;;;8.40;88.90;;;8.80;61.22;96162.09;4947856;28;20051;-42
2022/04/08 08:48:05;;;;;;;1.97;1.13;;;8.40;88.80;;;8.78;61.87;96153.50;4948223;28;20059;-45
2022/04/08 08:50:37;;;;;;;3.87;1.10;;;8.40;89.30;;;8.78;61.65;96142.91;4947883;29;20253;-42
2022/04/08 08:53:05;;;;;;;2.83;1.00;;;8.30;90.80;;;8.78;62.25;96142.91;4947877;29;20055;-43
2022/04/08 08:55:33;;;;;;;3.63;1.00;;;8.40;91.60;;;8.80;61.95;96147.03;4948303;28;20074;-44
2022/04/08 08:58:01;;;;;;;1.80;0.90;;;8.40;91.70;;;8.81;62.12;96139.88;4948480;29;20219;-44
2022/04/08 09:00:29;;;;;;;3.23;1.20;;;8.40;92.80;;;8.82;62.02;96134.41;4948693;28;20052;-42
2022/04/08 09:02:57;;;;;;;2.80;1.17;;;8.40;94.90;;;8.82;62.19;96131.75;4948072;29;20050;-44
2022/04/08 09:05:26;;;;;;;0.77;0.70;;;8.30;97.30;;;8.81;62.14;96126.63;4946385;29;20063;-44
2022/04/08 09:08:05;;;;;;;2.37;1.20;;;8.40;97.40;;;8.79;62.29;96128.63;4947808;29;20245;-43
2022/04/08 09:10:36;;;;;;;2.67;0.90;;;8.30;95.80;;;8.80;62.12;96124.94;4947049;29;20238;-42
2022/04/08 09:13:10;;;;;;;1.30;1.00;;;8.30;98.50;;;8.81;62.50;96116.81;4947521;29;20075;-42
2022/04/08 09:15:41;;;;;;;2.73;1.67;;;8.30;99.90;;;8.78;62.58;96108.41;4945937;29;20132;-42
2022/04/08 09:18:14;;;;;;;2.40;1.23;;;8.30;99.90;;;8.76;62.70;96107.75;4932645;29;20617;-42
2022/04/08 09:20:45;;;;;;;2.10;1.50;;;8.30;99.90;;;8.74;62.93;96094.69;4947803;29;20357;-42
2022/04/08 09:23:16;;;;;;;1.57;1.00;;;8.30;99.90;;;8.77;62.95;96091.66;4948909;29;20586;-43
2022/04/08 09:25:47;;;;;;;2.10;0.90;;;8.30;99.90;;;8.80;63.10;96082.50;4949375;29;20055;-41
2022/04/08 09:28:17;;;;;;;0.80;0.80;;;8.40;99.90;;;8.81;63.13;96081.50;4947326;29;20057;-42
2022/04/08 09:30:52;;;;;;;1.43;0.90;;;8.40;99.90;;;8.80;63.26;96074.53;4948398;29;20057;-42
2022/04/08 09:33:23;;;;;;;0.90;0.70;;;8.40;99.90;;;8.77;63.37;96067.78;4947229;28;20063;-43
2022/04/08 09:35:55;;;;;;;1.90;0.90;;;8.30;99.90;;;8.78;63.26;96060.63;4948574;29;20078;-42
2022/04/08 09:38:30;;;;;;;1.50;1.00;;;8.30;99.90;;;8.77;63.28;96053.69;4945985;29;20207;-42
2022/04/08 09:41:10;;;;;;;3.20;2.40;;;8.30;99.90;;;8.78;62.85;96057.97;4947952;29;20055;-42
2022/04/08 09:43:39;;;;;;;4.33;2.80;;;8.30;99.90;;;8.76;63.01;96046.75;4947432;29;20047;-42
2022/04/08 09:46:14;;;;;;;3.00;1.27;;;8.30;99.90;;;8.74;63.20;96041.63;4948436;28;20543;-41
2022/04/08 09:48:44;;;;;;;2.80;1.13;;;8.20;99.90;;;8.70;63.33;96045.66;4948380;28;20062;-42
2022/04/08 09:51:21;;;;;;;2.73;1.87;;;8.20;99.90;;;8.66;63.66;96041.75;4948046;29;20062;-41
2022/04/08 09:53:57;;;;;;;2.63;1.53;;;8.10;99.90;;;8.62;63.49;96037.81;4948305;29;20055;-42
2022/04/08 09:56:29;;;;;;;5.40;2.67;;;8.00;99.90;;;8.59;63.33;96020.47;4945679;29;20047;-41
2022/04/08 09:59:12;;;;;;;3.03;1.73;;;8.00;99.90;;;8.57;63.34;96008.38;4947943;29;20055;-42
2022/04/08 10:01:45;;;;;;;4.18;2.58;;;8.00;99.90;;;8.55;63.77;95997.97;4947927;29;20061;-41
2022/04/08 10:04:13;;;;;;;1.10;1.07;;;8.00;99.90;;;8.44;62.82;95987.88;4948189;29;20043;-41
2022/04/08 10:06:43;;;;;;;0.80;0.70;;;7.80;99.90;;;8.25;62.46;95982.13;4947329;28;20085;-41
2022/04/08 10:09:14;;;;;;;1.03;0.73;;;7.50;99.90;;;8.19;62.81;95979.41;4947046;29;20051;-42
2022/04/08 10:11:57;;;;;;;1.17;0.57;;;7.50;99.90;;;8.19;63.01;95974.91;4946429;29;20051;-42
2022/04/08 10:14:44;;;;;;;1.05;0.75;;;7.60;99.90;;;8.22;63.36;95976.34;4945945;28;20051;-42
2022/04/08 10:17:13;;;;;;;7.73;3.90;;;7.70;99.90;;;8.27;63.57;95974.78;4949961;29;20363;-42
2022/04/08 10:19:40;;;;;;;3.27;1.70;;;7.70;99.90;;;8.27;63.64;95960.72;4951285;29;20056;-43
2022/04/08 10:22:17;;;;;;;1.65;1.00;;;7.70;99.90;;;8.25;64.07;95957.44;4950382;28;20066;-42
2022/04/08 10:24:56;;;;;;;2.10;1.20;;;7.70;99.90;;;8.26;63.90;95949.31;4950020;29;20050;-45
2022/04/08 10:27:31;;;;;;;1.50;0.80;;;7.70;99.90;;;8.28;63.79;95947.28;4951580;29;20568;-41
2022/04/08 10:29:59;;;;;;;1.20;1.00;;;7.80;99.90;;;8.18;64.20;95937.97;4950097;29;20055;-41
2022/04/08 10:32:38;;;;;;;1.67;0.70;;;7.50;99.90;;;8.04;63.41;95937.03;4950605;29;20051;-41
2022/04/08 10:35:18;;;;;;;0.57;0.50;;;7.30;99.90;;;8.05;63.73;95920.13;4951084;29;20057;-42
2022/04/08 10:37:57;;;;;;;0.83;0.67;;;7.40;99.90;;;8.07;64.22;95926.88;4951636;29;20063;-41
2022/04/08 10:40:36;;;;;;;0.60;0.60;;;7.50;99.90;;;8.05;63.98;95914.81;4949341;29;20059;-41